Wernersville, Pennsylvania
Current Conditions -  °F | °C
As of 7:54 PM on Thursday 27 Nov 2014 (Local Time) from KRDG Reporting Station
Clear Clear  
Wind Chill: 31°   Ceiling: Unl
Heat Index: 31°   Visibility: 10mi
Dew Point: 25°   Wind: 0mph
Humidity: 79%   Direction: NA
Pressure: 30.08"   Gusts: NA
Location:  40.33°N, 76.08°W
Report Text: KRDG 280054Z AUTO 00000KT 10SM CLR M01/M04 A3008 RMK AO2 SLP195 T10061039
Loading
Personal Weather Stations






























Interactive Weather Map New forecast layout! Learn more

10-Day Weather Forecast

Advertisements
Track Severe Weather on mobile